Time,TemperatureF,DewpointF,PressureIn,WindDirection,WindDirectionDegrees,WindSpeedMPH,WindSpeedGustMPH,Humidity,HourlyPrecipIn,Conditions,Clouds,dailyrainin,SoftwareType,DateUTC
2013-06-16 00:14:00,61.1,45.0,29.94,NE,38,0.0,-999.0,56,-99.99,,,0.00,weatherlink.com 1.10,2013-06-16 04:14:00,
2013-06-16 00:28:00,61.1,46.0,29.94,NE,38,0.0,-999.0,58,-99.99,,,0.00,weatherlink.com 1.10,2013-06-16 04:28:00,
2013-06-16 00:43:00,59.4,47.0,29.94,NE,38,0.0,-999.0,63,-99.99,,,0.00,weatherlink.com 1.10,2013-06-16 04:43:00,
2013-06-16 00:58:00,57.8,46.0,29.94,NE,38,0.0,-999.0,66,-99.99,,,0.00,weatherlink.com 1.10,2013-06-16 04:58:00,
2013-06-16 01:13:00,56.8,47.0,29.94,NE,38,0.0,-999.0,69,-99.99,,,0.00,weatherlink.com 1.10,2013-06-16 05:13:00,
2013-06-16 01:28:00,56.4,47.0,29.94,NE,38,0.0,-999.0,70,-99.99,,,0.00,weatherlink.com 1.10,2013-06-16 05:28:00,
2013-06-16 01:43:00,56.8,47.0,29.94,NE,38,0.0,-999.0,71,-99.99,,,0.00,weatherlink.com 1.10,2013-06-16 05:43:00,
2013-06-16 01:58:00,56.4,47.0,29.95,NE,38,0.0,-999.0,71,-99.99,,,0.00,weatherlink.com 1.10,2013-06-16 05:58:00,
2013-06-16 02:13:00,57.0,48.0,29.94,NE,38,0.0,-999.0,71,-99.99,,,0.00,weatherlink.com 1.10,2013-06-16 06:13:00,
2013-06-16 02:28:00,56.8,48.0,29.94,NE,38,0.0,-999.0,73,-99.99,,,0.00,weatherlink.com 1.10,2013-06-16 06:28:00,
2013-06-16 02:43:00,56.6,48.0,29.94,NE,38,0.0,-999.0,74,-99.99,,,0.00,weatherlink.com 1.10,2013-06-16 06:43:00,
2013-06-16 02:58:00,56.4,48.0,29.93,NE,38,0.0,-999.0,74,-99.99,,,0.00,weatherlink.com 1.10,2013-06-16 06:58:00,
2013-06-16 03:13:00,56.6,48.0,29.93,NE,38,0.0,-999.0,73,-99.99,,,0.00,weatherlink.com 1.10,2013-06-16 07:13:00,
2013-06-16 03:28:00,56.2,48.0,29.93,NE,38,0.0,-999.0,75,-99.99,,,0.00,weatherlink.com 1.10,2013-06-16 07:28:00,
2013-06-16 03:43:00,55.9,48.0,29.92,NE,38,0.0,-999.0,76,-99.99,,,0.00,weatherlink.com 1.10,2013-06-16 07:43:00,
2013-06-16 03:58:00,55.7,48.0,29.92,NE,38,0.0,-999.0,76,-99.99,,,0.00,weatherlink.com 1.10,2013-06-16 07:58:00,
2013-06-16 04:14:00,55.3,49.0,29.92,NE,38,0.0,-999.0,78,-99.99,,,0.00,weatherlink.com 1.10,2013-06-16 08:14:00,
2013-06-16 04:28:00,54.8,48.0,29.92,NE,38,0.0,-999.0,79,-99.99,,,0.00,weatherlink.com 1.10,2013-06-16 08:28:00,
2013-06-16 04:44:00,54.8,49.0,29.92,NE,38,0.0,-999.0,80,-99.99,,,0.00,weatherlink.com 1.10,2013-06-16 08:44:00,
2013-06-16 04:59:00,55.0,49.0,29.92,NE,38,1.0,-999.0,80,-99.99,,,0.00,weatherlink.com 1.10,2013-06-16 08:59:00,
2013-06-16 05:15:00,56.3,49.0,29.92,North,360,0.0,-999.0,77,-99.99,,,0.00,weatherlink.com 1.10,2013-06-16 09:15:00,
2013-06-16 05:29:00,56.7,49.0,29.92,NNE,20,2.0,-999.0,76,-99.99,,,0.00,weatherlink.com 1.10,2013-06-16 09:29:00,
2013-06-16 05:44:00,56.8,49.0,29.92,North,355,2.0,-999.0,76,-99.99,,,0.00,weatherlink.com 1.10,2013-06-16 09:44:00,
2013-06-16 05:59:00,56.8,49.0,29.91,North,360,0.0,-999.0,76,-99.99,,,0.00,weatherlink.com 1.10,2013-06-16 09:59:00,
2013-06-16 06:14:00,56.6,49.0,29.92,North,355,1.0,-999.0,77,-99.99,,,0.00,weatherlink.com 1.10,2013-06-16 10:14:00,
2013-06-16 06:29:00,56.4,50.0,29.92,North,360,1.0,-999.0,78,-99.99,,,0.00,weatherlink.com 1.10,2013-06-16 10:29:00,
2013-06-16 06:44:00,56.0,50.0,29.92,NE,53,0.0,-999.0,79,-99.99,,,0.00,weatherlink.com 1.10,2013-06-16 10:44:00,
2013-06-16 06:59:00,56.1,50.0,29.92,North,355,0.0,-999.0,81,-99.99,,,0.00,weatherlink.com 1.10,2013-06-16 10:59:00,
2013-06-16 07:14:00,57.5,51.0,29.92,North,11,0.0,-999.0,79,-99.99,,,0.00,weatherlink.com 1.10,2013-06-16 11:14:00,
2013-06-16 07:29:00,58.5,51.0,29.91,North,351,4.0,-999.0,76,-99.99,,,0.00,weatherlink.com 1.10,2013-06-16 11:29:00,
2013-06-16 07:45:00,59.1,52.0,29.91,North,11,5.0,-999.0,76,-99.99,,,0.00,weatherlink.com 1.10,2013-06-16 11:45:00,
2013-06-16 07:59:00,60.0,52.0,29.91,NE,53,2.0,-999.0,75,-99.99,,,0.00,weatherlink.com 1.10,2013-06-16 11:59:00,
2013-06-16 08:14:00,61.4,52.0,29.91,North,355,5.0,-999.0,72,-99.99,,,0.00,weatherlink.com 1.10,2013-06-16 12:14:00,
2013-06-16 08:30:00,61.1,52.0,29.90,North,5,0.0,-999.0,72,-99.99,,,0.00,weatherlink.com 1.10,2013-06-16 12:30:00,
2013-06-16 08:44:00,60.7,52.0,29.90,NNW,341,1.0,-999.0,73,-99.99,,,0.00,weatherlink.com 1.10,2013-06-16 12:44:00,
2013-06-16 08:59:00,61.2,53.0,29.89,NE,40,6.0,-999.0,74,-99.99,,,0.00,weatherlink.com 1.10,2013-06-16 12:59:00,
2013-06-16 09:14:00,63.9,54.0,29.88,East,86,0.0,-999.0,71,-99.99,,,0.00,weatherlink.com 1.10,2013-06-16 13:14:00,
2013-06-16 09:29:00,63.9,54.0,29.87,NW,325,0.0,-999.0,69,-99.99,,,0.00,weatherlink.com 1.10,2013-06-16 13:29:00,
2013-06-16 09:44:00,64.8,54.0,29.86,NNE,15,0.0,-999.0,69,-99.99,,,0.00,weatherlink.com 1.10,2013-06-16 13:44:00,
2013-06-16 09:59:00,65.2,55.0,29.86,North,360,4.0,-999.0,69,-99.99,,,0.00,weatherlink.com 1.10,2013-06-16 13:59:00,
2013-06-16 10:14:00,66.2,55.0,29.85,NNE,21,4.0,-999.0,68,-99.99,,,0.00,weatherlink.com 1.10,2013-06-16 14:14:00,
2013-06-16 10:29:00,66.6,56.0,29.84,NNE,28,3.0,-999.0,68,-99.99,,,0.00,weatherlink.com 1.10,2013-06-16 14:29:00,
2013-06-16 10:45:00,66.1,56.0,29.84,NE,39,3.0,-999.0,70,-99.99,,,0.00,weatherlink.com 1.10,2013-06-16 14:45:00,
2013-06-16 11:00:00,66.5,57.0,29.83,NE,48,3.0,-999.0,71,-99.99,,,0.00,weatherlink.com 1.10,2013-06-16 15:00:00,
2013-06-16 11:15:00,68.0,58.0,29.82,North,351,4.0,-999.0,70,-99.99,,,0.00,weatherlink.com 1.10,2013-06-16 15:15:00,
2013-06-16 11:30:00,68.1,58.0,29.82,North,9,0.0,-999.0,69,-99.99,,,0.00,weatherlink.com 1.10,2013-06-16 15:30:00,
2013-06-16 11:45:00,67.8,57.0,29.81,NNE,24,4.0,-999.0,68,-99.99,,,0.00,weatherlink.com 1.10,2013-06-16 15:45:00,
2013-06-16 12:00:00,68.2,58.0,29.80,NNW,346,4.0,-999.0,70,-99.99,,,0.00,weatherlink.com 1.10,2013-06-16 16:00:00,
2013-06-16 12:15:00,67.9,57.0,29.80,NNE,29,4.0,-999.0,68,-99.99,,,0.00,weatherlink.com 1.10,2013-06-16 16:15:00,
2013-06-16 12:30:00,68.4,58.0,29.79,NNE,13,3.0,-999.0,70,-99.99,,,0.00,weatherlink.com 1.10,2013-06-16 16:30:00,
2013-06-16 12:45:00,68.4,57.0,29.78,North,360,8.0,-999.0,67,-99.99,,,0.00,weatherlink.com 1.10,2013-06-16 16:45:00,
2013-06-16 13:00:00,68.2,58.0,29.77,NNW,348,5.0,-999.0,69,-99.99,,,0.00,weatherlink.com 1.10,2013-06-16 17:00:00,
2013-06-16 13:15:00,68.0,58.0,29.76,NNE,17,3.0,-999.0,70,-99.99,,,0.00,weatherlink.com 1.10,2013-06-16 17:15:00,
2013-06-16 13:30:00,68.1,58.0,29.74,NNE,32,3.0,-999.0,70,-99.99,,,0.00,weatherlink.com 1.10,2013-06-16 17:30:00,
2013-06-16 13:45:00,68.3,58.0,29.73,NNE,15,3.0,-999.0,69,-99.99,,,0.00,weatherlink.com 1.10,2013-06-16 17:45:00,
2013-06-16 14:01:00,68.5,57.0,29.72,NNW,335,9.0,-999.0,67,-99.99,,,0.00,weatherlink.com 1.10,2013-06-16 18:01:00,
2013-06-16 14:15:00,68.2,57.0,29.72,NNE,18,1.0,-999.0,68,-99.99,,,0.00,weatherlink.com 1.10,2013-06-16 18:15:00,
2013-06-16 14:30:00,68.1,58.0,29.70,NE,35,1.0,-999.0,69,-99.99,,,0.00,weatherlink.com 1.10,2013-06-16 18:30:00,
2013-06-16 14:45:00,68.3,58.0,29.70,NE,42,0.0,-999.0,69,-99.99,,,0.00,weatherlink.com 1.10,2013-06-16 18:45:00,
2013-06-16 15:00:00,68.2,58.0,29.69,NNW,341,0.0,-999.0,70,-99.99,,,0.00,weatherlink.com 1.10,2013-06-16 19:00:00,
2013-06-16 15:16:00,67.8,59.0,29.70,NE,40,0.0,-999.0,74,-99.99,,,0.00,weatherlink.com 1.10,2013-06-16 19:16:00,
2013-06-16 15:31:00,68.3,60.0,29.69,North,9,7.0,-999.0,74,-99.99,,,0.00,weatherlink.com 1.10,2013-06-16 19:31:00,
2013-06-16 15:47:00,69.5,59.0,29.68,ENE,69,7.0,-999.0,70,-99.99,,,0.00,weatherlink.com 1.10,2013-06-16 19:47:00,
2013-06-16 16:01:00,69.2,60.0,29.68,NNW,339,4.0,-999.0,73,-99.99,,,0.00,weatherlink.com 1.10,2013-06-16 20:01:00,
2013-06-16 16:16:00,69.2,60.0,29.68,ENE,60,4.0,-999.0,73,-99.99,,,0.00,weatherlink.com 1.10,2013-06-16 20:16:00,
2013-06-16 16:31:00,69.3,60.0,29.68,North,350,6.0,-999.0,73,-99.99,,,0.00,weatherlink.com 1.10,2013-06-16 20:31:00,
2013-06-16 16:46:00,70.1,60.0,29.68,NE,53,4.0,-999.0,70,-99.99,,,0.00,weatherlink.com 1.10,2013-06-16 20:46:00,
2013-06-16 17:01:00,70.2,60.0,29.68,North,351,3.0,-999.0,70,-99.99,,,0.00,weatherlink.com 1.10,2013-06-16 21:01:00,
2013-06-16 17:16:00,70.0,60.0,29.68,NNE,14,3.0,-999.0,71,-99.99,,,0.00,weatherlink.com 1.10,2013-06-16 21:16:00,
2013-06-16 17:31:00,69.7,61.0,29.68,North,10,0.0,-999.0,73,-99.99,,,0.00,weatherlink.com 1.10,2013-06-16 21:31:00,
2013-06-16 17:46:00,69.6,61.0,29.68,North,10,0.0,-999.0,75,-99.99,,,0.00,weatherlink.com 1.10,2013-06-16 21:46:00,
2013-06-16 18:01:00,69.3,62.0,29.69,North,10,0.0,-999.0,77,-99.99,,,0.00,weatherlink.com 1.10,2013-06-16 22:01:00,
2013-06-16 18:16:00,69.2,62.0,29.69,North,10,0.0,-999.0,79,-99.99,,,0.00,weatherlink.com 1.10,2013-06-16 22:16:00,
2013-06-16 18:31:00,69.2,62.0,29.69,North,10,0.0,-999.0,79,-99.99,,,0.00,weatherlink.com 1.10,2013-06-16 22:31:00,
2013-06-16 18:46:00,69.3,63.0,29.70,North,10,0.0,-999.0,81,-99.99,,,0.00,weatherlink.com 1.10,2013-06-16 22:46:00,
2013-06-16 19:01:00,69.0,63.0,29.70,North,10,0.0,-999.0,81,-99.99,,,0.00,weatherlink.com 1.10,2013-06-16 23:01:00,
2013-06-16 19:16:00,68.9,63.0,29.71,North,10,0.0,-999.0,81,-99.99,,,0.00,weatherlink.com 1.10,2013-06-16 23:16:00,
2013-06-16 19:32:00,68.9,63.0,29.73,SSE,158,0.0,-999.0,80,-99.99,,,0.00,weatherlink.com 1.10,2013-06-16 23:32:00,
2013-06-16 19:46:00,68.4,63.0,29.73,SE,133,0.0,-999.0,82,-99.99,,,0.00,weatherlink.com 1.10,2013-06-16 23:46:00,
2013-06-16 20:01:00,68.3,63.0,29.74,ENE,72,0.0,-999.0,83,-99.99,,,0.00,weatherlink.com 1.10,2013-06-17 00:01:00,
2013-06-16 20:16:00,67.9,63.0,29.75,SSE,148,0.0,-999.0,83,-99.99,,,0.00,weatherlink.com 1.10,2013-06-17 00:16:00,
2013-06-16 20:31:00,67.5,62.0,29.75,NNE,23,3.0,-999.0,83,-99.99,,,0.00,weatherlink.com 1.10,2013-06-17 00:31:00,
2013-06-16 20:46:00,67.0,62.0,29.75,NE,43,0.0,-999.0,83,-99.99,,,0.00,weatherlink.com 1.10,2013-06-17 00:46:00,
2013-06-16 21:02:00,66.5,61.0,29.76,NE,49,0.0,-999.0,83,-99.99,,,0.00,weatherlink.com 1.10,2013-06-17 01:02:00,
2013-06-16 21:16:00,66.3,61.0,29.77,NE,53,1.0,-999.0,84,-99.99,,,0.00,weatherlink.com 1.10,2013-06-17 01:16:00,
2013-06-16 21:31:00,66.0,61.0,29.78,South,173,0.0,-999.0,84,-99.99,,,0.00,weatherlink.com 1.10,2013-06-17 01:31:00,
2013-06-16 21:46:00,65.7,61.0,29.79,SSE,153,0.0,-999.0,85,-99.99,,,0.00,weatherlink.com 1.10,2013-06-17 01:46:00,
2013-06-16 22:01:00,65.4,61.0,29.79,East,94,0.0,-999.0,86,-99.99,,,0.00,weatherlink.com 1.10,2013-06-17 02:01:00,
2013-06-16 22:16:00,65.1,61.0,29.79,SE,144,0.0,-999.0,87,-99.99,,,0.00,weatherlink.com 1.10,2013-06-17 02:16:00,
2013-06-16 22:31:00,64.9,61.0,29.80,North,360,0.0,-999.0,87,-99.99,,,0.00,weatherlink.com 1.10,2013-06-17 02:31:00,
2013-06-16 22:46:00,64.9,61.0,29.80,South,180,0.0,-999.0,87,-99.99,,,0.00,weatherlink.com 1.10,2013-06-17 02:46:00,
2013-06-16 23:01:00,64.8,61.0,29.80,NE,51,0.0,-999.0,87,-99.99,,,0.00,weatherlink.com 1.10,2013-06-17 03:01:00,
2013-06-16 23:16:00,64.9,61.0,29.80,ENE,57,3.0,-999.0,87,-99.99,,,0.00,weatherlink.com 1.10,2013-06-17 03:16:00,
2013-06-16 23:31:00,64.9,61.0,29.80,NE,53,0.0,-999.0,87,-99.99,,,0.00,weatherlink.com 1.10,2013-06-17 03:31:00,
2013-06-16 23:47:00,64.7,61.0,29.80,SE,134,0.0,-999.0,87,-99.99,,,0.00,weatherlink.com 1.10,2013-06-17 03:47:00,